createdAt,value
2023-05-04T00:00:37.994Z,6.20
2023-05-04T00:03:06.718Z,6.40
2023-05-04T00:05:34.833Z,6.20
2023-05-04T00:08:02.955Z,6.10
2023-05-04T00:10:32.512Z,6.10
2023-05-04T00:13:00.624Z,6.10
2023-05-04T00:15:30.396Z,6.30
2023-05-04T00:17:58.535Z,6.10
2023-05-04T00:20:26.838Z,6.10
2023-05-04T00:22:54.963Z,6.20
2023-05-04T00:25:23.190Z,7.10
2023-05-04T00:27:52.748Z,7.30
2023-05-04T00:30:20.971Z,6.30
2023-05-04T00:32:49.170Z,6.20
2023-05-04T00:35:17.467Z,6.30
2023-05-04T00:37:46.483Z,6.40
2023-05-04T00:40:14.852Z,7.20
2023-05-04T00:42:42.899Z,6.40
2023-05-04T00:45:12.787Z,6.40
2023-05-04T00:50:10.150Z,6.50
2023-05-04T00:52:40.917Z,6.50
2023-05-04T00:55:10.078Z,6.60
2023-05-04T00:57:38.323Z,6.60
2023-05-04T01:00:08.629Z,6.70
2023-05-04T01:02:38.176Z,6.70
2023-05-04T01:05:07.037Z,6.70
2023-05-04T01:07:44.542Z,6.70
2023-05-04T01:10:16.826Z,7.00
2023-05-04T01:12:51.316Z,6.70
2023-05-04T01:15:21.553Z,6.80
2023-05-04T01:17:51.275Z,6.80
2023-05-04T01:20:19.679Z,6.70
2023-05-04T01:22:49.341Z,6.70
2023-05-04T01:25:18.440Z,6.80
2023-05-04T01:27:50.408Z,6.70
2023-05-04T01:30:25.092Z,6.70
2023-05-04T01:32:53.942Z,6.80
2023-05-04T01:35:22.291Z,6.60
2023-05-04T01:37:51.826Z,6.60
2023-05-04T01:40:20.011Z,6.50
2023-05-04T01:42:48.141Z,6.50
2023-05-04T01:45:16.394Z,6.40
2023-05-04T01:47:44.804Z,6.50
2023-05-04T01:50:16.156Z,6.50
2023-05-04T01:52:44.355Z,6.50
2023-05-04T01:55:14.159Z,6.50
2023-05-04T01:57:42.377Z,6.50
2023-05-04T02:00:12.156Z,6.50
2023-05-04T02:02:40.284Z,6.50
2023-05-04T02:05:09.040Z,6.60
2023-05-04T02:07:37.084Z,6.50
2023-05-04T02:10:05.820Z,6.50
2023-05-04T02:12:35.686Z,6.50
2023-05-04T02:15:04.057Z,6.60
2023-05-04T02:17:32.224Z,6.40
2023-05-04T02:20:00.342Z,6.50
2023-05-04T02:22:28.604Z,6.40
2023-05-04T02:24:56.799Z,6.40
2023-05-04T02:27:24.956Z,6.60
2023-05-04T02:29:54.656Z,6.40
2023-05-04T02:32:22.817Z,6.60
2023-05-04T02:34:50.987Z,6.40
2023-05-04T02:37:19.639Z,6.70
2023-05-04T02:39:47.850Z,6.50
2023-05-04T02:42:16.375Z,6.50
2023-05-04T02:44:44.484Z,6.50
2023-05-04T02:47:13.886Z,6.60
2023-05-04T02:49:42.001Z,6.80
2023-05-04T02:52:10.224Z,6.60
2023-05-04T02:54:39.155Z,6.60
2023-05-04T02:57:07.378Z,6.60
2023-05-04T02:59:35.535Z,6.60
2023-05-04T03:02:03.622Z,6.60
2023-05-04T03:04:33.297Z,6.70
2023-05-04T03:07:01.488Z,6.50
2023-05-04T03:09:29.720Z,6.50
2023-05-04T03:11:57.790Z,6.40
2023-05-04T03:14:26.432Z,6.40
2023-05-04T03:16:54.599Z,6.70
2023-05-04T03:19:22.906Z,6.20
2023-05-04T03:21:52.354Z,6.50
2023-05-04T03:24:20.474Z,6.20
2023-05-04T03:26:48.653Z,6.20
2023-05-04T03:29:16.654Z,6.00
2023-05-04T03:31:44.943Z,6.10
2023-05-04T03:34:14.848Z,6.20
2023-05-04T03:36:43.080Z,6.10
2023-05-04T03:39:12.614Z,6.10
2023-05-04T03:41:40.749Z,6.10
2023-05-04T03:44:08.976Z,6.00
2023-05-04T03:46:37.077Z,6.00
2023-05-04T03:49:05.405Z,6.00
2023-05-04T03:51:33.590Z,6.00
2023-05-04T03:54:02.912Z,6.00
2023-05-04T03:56:32.415Z,6.00
2023-05-04T03:59:00.542Z,6.20
2023-05-04T04:01:28.646Z,6.20
2023-05-04T04:03:56.871Z,6.30
2023-05-04T04:06:25.095Z,6.20
2023-05-04T04:08:53.210Z,6.30
2023-05-04T04:11:21.419Z,6.30
2023-05-04T04:13:50.974Z,6.40
2023-05-04T04:16:20.520Z,6.50
2023-05-04T04:18:49.579Z,6.50
2023-05-04T04:21:17.721Z,6.90
2023-05-04T04:23:45.899Z,6.70
2023-05-04T04:26:14.113Z,6.70
2023-05-04T04:28:42.311Z,6.80
2023-05-04T04:31:11.878Z,6.90
2023-05-04T04:33:40.108Z,7.00
2023-05-04T04:36:09.140Z,6.90
2023-05-04T04:38:37.956Z,7.00
2023-05-04T04:41:06.334Z,7.10
2023-05-04T04:43:34.866Z,7.10
2023-05-04T04:46:04.118Z,7.30
2023-05-04T04:48:33.681Z,7.40
2023-05-04T04:51:01.981Z,7.40
2023-05-04T04:53:30.152Z,7.50
2023-05-04T04:55:58.330Z,7.60
2023-05-04T04:58:26.571Z,7.70
2023-05-04T05:00:58.368Z,7.80
2023-05-04T05:03:26.802Z,7.90
2023-05-04T05:05:56.517Z,8.10
2023-05-04T05:08:24.762Z,8.20
2023-05-04T05:10:52.982Z,8.30
2023-05-04T05:13:21.137Z,8.30
2023-05-04T05:15:49.247Z,8.40
2023-05-04T05:18:17.354Z,8.50
2023-05-04T05:20:45.493Z,8.50
2023-05-04T05:23:15.152Z,8.60
2023-05-04T05:25:44.328Z,8.70
2023-05-04T05:28:14.297Z,8.80
2023-05-04T05:30:42.954Z,8.90
2023-05-04T05:33:11.432Z,9.00
2023-05-04T05:35:39.832Z,9.20
2023-05-04T05:38:08.018Z,9.30
2023-05-04T05:40:37.841Z,9.40
2023-05-04T05:43:06.677Z,9.50
2023-05-04T05:45:36.044Z,9.70
2023-05-04T05:48:04.310Z,9.80
2023-05-04T05:50:32.633Z,9.90
2023-05-04T05:53:00.917Z,10.10
2023-05-04T05:55:29.026Z,10.10
2023-05-04T05:57:58.591Z,10.30
2023-05-04T06:00:27.117Z,10.40
2023-05-04T06:02:56.026Z,10.50
2023-05-04T06:05:24.498Z,10.60
2023-05-04T06:07:52.611Z,11.00
2023-05-04T06:10:20.655Z,10.70
2023-05-04T06:12:48.769Z,10.80
2023-05-04T06:15:18.604Z,10.90
2023-05-04T06:17:48.962Z,11.00
2023-05-04T06:20:17.947Z,11.00
2023-05-04T06:22:46.079Z,11.10
2023-05-04T06:25:14.307Z,11.10
2023-05-04T06:27:42.346Z,11.20
2023-05-04T06:30:11.405Z,11.20
2023-05-04T06:32:40.934Z,11.20
2023-05-04T06:35:10.528Z,11.30
2023-05-04T06:37:38.654Z,11.30
2023-05-04T06:40:08.435Z,11.40
2023-05-04T06:42:36.865Z,11.30
2023-05-04T06:45:05.588Z,11.40
2023-05-04T06:47:36.610Z,11.50
2023-05-04T06:50:10.627Z,11.60
2023-05-04T06:52:41.325Z,11.70
2023-05-04T06:55:10.140Z,11.80
2023-05-04T06:57:38.246Z,11.90
2023-05-04T07:00:08.336Z,12.00
2023-05-04T07:02:36.503Z,12.10
2023-05-04T07:05:04.922Z,12.20
2023-05-04T07:07:34.483Z,12.30
2023-05-04T07:10:02.735Z,12.50
2023-05-04T07:12:31.274Z,12.60
2023-05-04T07:14:59.422Z,12.90
2023-05-04T07:17:27.874Z,13.10
2023-05-04T07:19:56.062Z,13.30
2023-05-04T07:22:24.272Z,13.40
2023-05-04T07:24:53.682Z,13.60
2023-05-04T07:27:21.807Z,13.60
2023-05-04T07:29:50.928Z,13.60
2023-05-04T07:32:19.115Z,13.70
2023-05-04T07:34:47.340Z,13.80
2023-05-04T07:37:16.477Z,13.90
2023-05-04T07:39:44.772Z,14.20
2023-05-04T07:42:14.248Z,14.30
2023-05-04T07:44:42.392Z,14.50
2023-05-04T07:47:10.768Z,14.70
2023-05-04T07:49:38.847Z,14.80
2023-05-04T07:52:07.171Z,14.80
2023-05-04T07:54:36.388Z,14.90
2023-05-04T07:57:04.922Z,15.10
2023-05-04T07:59:34.690Z,15.30
2023-05-04T08:02:03.521Z,15.40
2023-05-04T08:04:31.771Z,15.70
2023-05-04T08:06:59.979Z,15.80
2023-05-04T08:09:28.252Z,16.20
2023-05-04T08:11:56.350Z,16.50
2023-05-04T08:14:24.376Z,16.80
2023-05-04T08:16:53.772Z,17.00
2023-05-04T08:19:21.859Z,17.30
2023-05-04T08:21:49.961Z,17.60
2023-05-04T08:24:18.805Z,18.20
2023-05-04T08:26:52.573Z,18.90
2023-05-04T08:29:28.390Z,19.40
2023-05-04T08:31:58.516Z,19.70
2023-05-04T08:34:27.894Z,20.20
2023-05-04T08:36:56.160Z,20.70
2023-05-04T08:39:24.270Z,21.10
2023-05-04T08:41:52.426Z,21.40
2023-05-04T08:44:23.203Z,21.50
2023-05-04T08:46:53.565Z,21.70
2023-05-04T08:49:24.154Z,22.00
2023-05-04T08:51:52.985Z,22.10
2023-05-04T08:54:22.283Z,22.10
2023-05-04T08:56:55.053Z,22.10
2023-05-04T08:59:24.406Z,21.90
2023-05-04T09:01:58.602Z,21.70
2023-05-04T09:04:29.767Z,21.60
2023-05-04T09:06:58.676Z,21.80
2023-05-04T09:09:29.303Z,22.10
2023-05-04T09:11:59.149Z,22.60
2023-05-04T09:14:34.574Z,22.80
2023-05-04T09:17:03.222Z,22.90
2023-05-04T09:19:34.854Z,23.30
2023-05-04T09:22:03.812Z,23.80
2023-05-04T09:24:32.364Z,23.50
2023-05-04T09:27:10.968Z,23.50
2023-05-04T09:29:40.589Z,23.40
2023-05-04T09:32:13.437Z,23.10
2023-05-04T09:34:50.709Z,23.30
2023-05-04T09:37:20.888Z,23.30
2023-05-04T09:39:56.324Z,23.20
2023-05-04T09:42:25.271Z,23.10
2023-05-04T09:45:01.823Z,23.30
2023-05-04T09:47:37.067Z,23.20
2023-05-04T09:50:22.345Z,23.40
2023-05-04T09:52:51.450Z,23.80
2023-05-04T09:55:20.980Z,24.00
2023-05-04T09:57:50.672Z,24.10
2023-05-04T10:00:20.370Z,24.60
2023-05-04T10:02:49.355Z,24.60
2023-05-04T10:05:21.817Z,24.80
2023-05-04T10:07:50.855Z,24.80
2023-05-04T10:10:18.990Z,24.50
2023-05-04T10:12:47.225Z,24.50
2023-05-04T10:15:17.097Z,24.40
2023-05-04T10:18:07.084Z,24.30
2023-05-04T10:20:51.670Z,24.10
2023-05-04T10:24:00.427Z,24.20
2023-05-04T10:26:42.889Z,24.20
2023-05-04T10:29:23.642Z,24.70
2023-05-04T10:31:53.500Z,25.20
2023-05-04T10:34:26.909Z,25.30
2023-05-04T10:36:56.937Z,25.50
2023-05-04T10:39:26.382Z,25.90
2023-05-04T10:42:00.181Z,27.10
2023-05-04T10:44:29.925Z,28.50
2023-05-04T10:46:59.947Z,29.10
2023-05-04T10:49:28.359Z,29.10
2023-05-04T10:52:12.572Z,29.00
2023-05-04T10:54:42.166Z,28.70
2023-05-04T10:57:12.697Z,28.40
2023-05-04T10:59:41.747Z,27.80
2023-05-04T11:02:10.421Z,27.60
2023-05-04T11:04:39.322Z,27.20
2023-05-04T11:07:08.778Z,27.20
2023-05-04T11:09:40.221Z,27.50
2023-05-04T11:12:10.698Z,27.80
2023-05-04T11:14:43.350Z,28.00
2023-05-04T11:19:53.096Z,27.30
2023-05-04T11:22:21.592Z,27.40
2023-05-04T11:24:51.460Z,27.10
2023-05-04T11:27:24.335Z,26.60
2023-05-04T11:30:00.374Z,26.10
2023-05-04T11:32:36.029Z,25.80
2023-05-04T11:35:05.072Z,26.10
2023-05-04T11:37:41.349Z,26.20
2023-05-04T11:40:16.735Z,26.50
2023-05-04T11:42:45.162Z,26.70
2023-05-04T11:45:18.137Z,26.60
2023-05-04T11:47:47.436Z,26.60
2023-05-04T11:50:17.224Z,26.10
2023-05-04T11:52:45.724Z,25.50
2023-05-04T11:55:26.519Z,25.30
2023-05-04T11:57:59.289Z,25.00
2023-05-04T12:00:40.035Z,25.20
2023-05-04T12:03:10.130Z,25.10
2023-05-04T12:05:39.023Z,24.70
2023-05-04T12:08:08.826Z,24.50
2023-05-04T12:10:38.647Z,24.50
2023-05-04T12:13:17.685Z,24.40
2023-05-04T12:15:46.031Z,24.30
2023-05-04T12:18:22.949Z,24.40
2023-05-04T12:20:51.057Z,24.20
2023-05-04T12:23:19.222Z,24.10
2023-05-04T12:25:57.771Z,24.00
2023-05-04T12:28:27.817Z,24.00
2023-05-04T12:30:56.072Z,24.30
2023-05-04T12:33:24.482Z,24.60
2023-05-04T12:35:52.633Z,24.90
2023-05-04T12:38:20.754Z,25.20
2023-05-04T12:40:50.401Z,25.30
2023-05-04T12:43:20.932Z,25.50
2023-05-04T12:45:49.233Z,25.60
2023-05-04T12:48:17.425Z,25.90
2023-05-04T12:50:46.004Z,26.40
2023-05-04T12:53:14.370Z,27.10
2023-05-04T12:55:42.873Z,27.70
2023-05-04T12:58:12.867Z,27.80
2023-05-04T13:00:41.320Z,28.10
2023-05-04T13:03:09.665Z,28.30
2023-05-04T13:05:37.929Z,28.90
2023-05-04T13:08:06.494Z,29.40
2023-05-04T13:10:34.656Z,29.50
2023-05-04T13:13:04.726Z,29.90
2023-05-04T13:15:34.516Z,30.10
2023-05-04T13:18:03.050Z,30.40
2023-05-04T13:20:31.674Z,31.00
2023-05-04T13:23:00.029Z,31.60
2023-05-04T13:25:28.244Z,31.80
2023-05-04T13:27:57.376Z,32.10
2023-05-04T13:30:26.418Z,31.20
2023-05-04T13:32:56.345Z,30.60
2023-05-04T13:35:24.733Z,30.00
2023-05-04T13:37:52.786Z,30.00
2023-05-04T13:40:21.287Z,29.60
2023-05-04T13:42:49.537Z,29.70
2023-05-04T13:45:17.779Z,29.30
2023-05-04T13:47:46.447Z,29.70
2023-05-04T13:50:16.255Z,29.90
2023-05-04T13:52:44.338Z,30.00
2023-05-04T13:55:12.773Z,30.10
2023-05-04T13:57:40.870Z,29.90
2023-05-04T14:00:11.168Z,29.60
2023-05-04T14:02:40.028Z,29.40
2023-05-04T14:05:08.877Z,28.80
2023-05-04T14:07:38.668Z,28.30
2023-05-04T14:10:07.925Z,27.70
2023-05-04T14:12:36.090Z,27.10
2023-05-04T14:15:04.604Z,26.70
2023-05-04T14:17:32.839Z,26.50
2023-05-04T14:20:01.045Z,26.20
2023-05-04T14:22:29.520Z,26.00
2023-05-04T14:24:59.184Z,25.80
2023-05-04T14:27:27.477Z,25.80
2023-05-04T14:29:55.522Z,25.80
2023-05-04T14:32:24.381Z,25.80
2023-05-04T14:34:52.939Z,25.80
2023-05-04T14:37:21.077Z,25.70
2023-05-04T14:39:49.158Z,25.80
2023-05-04T14:42:18.569Z,25.90
2023-05-04T14:44:46.766Z,25.90
2023-05-04T14:47:14.879Z,25.80
2023-05-04T14:49:43.098Z,25.50
2023-05-04T14:52:11.276Z,25.50
2023-05-04T14:54:39.377Z,25.50
2023-05-04T14:57:09.073Z,25.50
2023-05-04T14:59:38.889Z,25.20
2023-05-04T15:02:08.123Z,24.90
2023-05-04T15:04:36.351Z,24.80
2023-05-04T15:07:05.446Z,24.60
2023-05-04T15:09:33.824Z,24.50
2023-05-04T15:12:03.509Z,24.80
2023-05-04T15:14:31.700Z,24.60
2023-05-04T15:17:01.376Z,24.60
2023-05-04T15:19:29.427Z,24.80
2023-05-04T15:21:57.786Z,24.90
2023-05-04T15:24:25.856Z,24.80
2023-05-04T15:26:56.435Z,24.70
2023-05-04T15:29:24.802Z,24.80
2023-05-04T15:31:53.398Z,24.70
2023-05-04T15:34:22.946Z,24.60
2023-05-04T15:36:51.236Z,24.30
2023-05-04T15:39:19.392Z,24.20
2023-05-04T15:41:47.577Z,24.20
2023-05-04T15:44:15.977Z,24.40
2023-05-04T15:46:46.387Z,24.40
2023-05-04T15:49:14.674Z,24.30
2023-05-04T15:51:44.139Z,24.20
2023-05-04T15:54:12.293Z,24.30
2023-05-04T15:56:40.557Z,24.20
2023-05-04T15:59:08.775Z,24.10
2023-05-04T16:01:37.558Z,24.10
2023-05-04T16:04:06.092Z,24.10
2023-05-04T16:06:34.226Z,23.90
2023-05-04T16:09:04.137Z,23.90
2023-05-04T16:11:33.134Z,23.80
2023-05-04T16:14:01.549Z,23.70
2023-05-04T16:16:29.804Z,23.60
2023-05-04T16:18:58.011Z,23.50
2023-05-04T16:21:26.432Z,23.40
2023-05-04T16:23:55.185Z,23.30
2023-05-04T16:26:24.779Z,23.10
2023-05-04T16:28:52.879Z,23.00
2023-05-04T16:31:21.085Z,22.80
2023-05-04T16:33:49.330Z,22.60
2023-05-04T16:36:17.621Z,22.60
2023-05-04T16:38:45.779Z,22.40
2023-05-04T16:41:14.058Z,22.30
2023-05-04T16:43:43.551Z,22.10
2023-05-04T16:46:12.309Z,22.00
2023-05-04T16:48:40.383Z,21.80
2023-05-04T16:51:09.149Z,21.70
2023-05-04T16:53:37.412Z,21.60
2023-05-04T16:56:06.530Z,21.60
2023-05-04T16:58:34.711Z,21.60
2023-05-04T17:01:04.377Z,21.60
2023-05-04T17:03:32.927Z,21.60
2023-05-04T17:06:01.308Z,21.60
2023-05-04T17:08:29.462Z,21.60
2023-05-04T17:11:00.075Z,21.60
2023-05-04T17:13:28.347Z,21.50
2023-05-04T17:15:56.453Z,21.40
2023-05-04T17:18:26.082Z,21.30
2023-05-04T17:20:54.250Z,21.10
2023-05-04T17:25:50.901Z,20.80
2023-05-04T17:28:20.766Z,20.70
2023-05-04T17:30:49.069Z,20.60
2023-05-04T17:33:17.337Z,20.40
2023-05-04T17:35:47.104Z,20.30
2023-05-04T17:38:15.308Z,20.20
2023-05-04T17:40:43.518Z,20.10
2023-05-04T17:43:11.646Z,20.00
2023-05-04T17:45:39.811Z,19.90
2023-05-04T17:48:08.034Z,19.80
2023-05-04T17:50:36.246Z,19.60
2023-05-04T17:53:06.045Z,19.50
2023-05-04T17:55:34.197Z,19.40
2023-05-04T17:58:02.423Z,19.20
2023-05-04T18:00:30.630Z,19.10
2023-05-04T18:02:58.910Z,19.10
2023-05-04T18:05:27.147Z,19.00
2023-05-04T18:07:55.361Z,18.80
2023-05-04T18:10:25.232Z,18.70
2023-05-04T18:12:53.457Z,18.60
2023-05-04T18:15:21.610Z,18.50
2023-05-04T18:17:50.728Z,18.40
2023-05-04T18:20:19.170Z,18.30
2023-05-04T18:22:47.763Z,18.20
2023-05-04T18:25:16.564Z,18.00
2023-05-04T18:27:46.014Z,17.90
2023-05-04T18:30:14.464Z,17.80
2023-05-04T18:32:42.910Z,17.70
2023-05-04T18:35:11.866Z,17.60
2023-05-04T18:37:40.037Z,17.50
2023-05-04T18:40:09.940Z,17.40
2023-05-04T18:42:38.674Z,18.60
2023-05-04T18:45:10.382Z,17.10
2023-05-04T18:47:38.484Z,17.10
2023-05-04T18:50:08.110Z,17.00
2023-05-04T18:52:36.585Z,16.90
2023-05-04T18:55:05.494Z,16.80
2023-05-04T18:57:33.782Z,16.60
2023-05-04T19:00:01.947Z,16.50
2023-05-04T19:02:31.645Z,16.50
2023-05-04T19:05:00.050Z,16.40
2023-05-04T19:07:28.388Z,16.30
2023-05-04T19:09:56.855Z,16.20
2023-05-04T19:12:25.111Z,16.10
2023-05-04T19:14:53.240Z,16.00
2023-05-04T19:17:21.495Z,16.00
2023-05-04T19:19:51.788Z,15.80
2023-05-04T19:22:19.941Z,15.80
2023-05-04T19:24:51.734Z,15.60
2023-05-04T19:27:20.015Z,15.50
2023-05-04T19:29:48.332Z,15.50
2023-05-04T19:32:24.491Z,15.40
2023-05-04T19:34:54.806Z,15.30
2023-05-04T19:37:23.566Z,15.20
2023-05-04T19:39:51.856Z,15.10
2023-05-04T19:42:20.065Z,15.00
2023-05-04T19:44:48.340Z,14.90
2023-05-04T19:47:16.998Z,14.90
2023-05-04T19:49:47.507Z,14.80
2023-05-04T19:52:18.184Z,14.70
2023-05-04T19:54:48.680Z,14.60
2023-05-04T19:57:16.987Z,14.60
2023-05-04T19:59:47.021Z,14.50
2023-05-04T20:02:15.730Z,14.40
2023-05-04T20:04:44.055Z,14.40
2023-05-04T20:07:12.288Z,14.30
2023-05-04T20:09:41.944Z,14.30
2023-05-04T20:12:10.940Z,14.30
2023-05-04T20:14:40.706Z,14.30
2023-05-04T20:17:09.122Z,14.30
2023-05-04T20:19:38.435Z,14.40
2023-05-04T20:22:07.079Z,14.50
2023-05-04T20:24:36.095Z,14.80
2023-05-04T20:27:05.959Z,14.90
2023-05-04T20:29:34.858Z,14.90
2023-05-04T20:32:05.299Z,15.00
2023-05-04T20:34:33.945Z,15.10
2023-05-04T20:37:02.505Z,15.10
2023-05-04T20:39:30.828Z,15.10
2023-05-04T20:41:59.184Z,15.10
2023-05-04T20:44:28.884Z,15.10
2023-05-04T20:46:57.135Z,15.00
2023-05-04T20:49:25.490Z,15.10
2023-05-04T20:51:53.749Z,15.10
2023-05-04T20:54:22.394Z,15.10
2023-05-04T20:56:50.597Z,15.00
2023-05-04T20:59:19.284Z,15.00
2023-05-04T21:01:48.943Z,15.00
2023-05-04T21:04:17.229Z,14.90
2023-05-04T21:06:48.004Z,14.90
2023-05-04T21:09:16.438Z,14.70
2023-05-04T21:11:52.634Z,14.70
2023-05-04T21:14:25.532Z,14.70
2023-05-04T21:16:55.597Z,14.70
2023-05-04T21:19:24.021Z,14.60
2023-05-04T21:21:52.463Z,14.60
2023-05-04T21:24:21.118Z,14.60
2023-05-04T21:26:49.829Z,14.60
2023-05-04T21:29:18.342Z,14.60
2023-05-04T21:31:46.954Z,14.60
2023-05-04T21:34:17.083Z,14.50
2023-05-04T21:36:46.028Z,14.40
2023-05-04T21:39:16.901Z,14.40
2023-05-04T21:41:45.187Z,14.40
2023-05-04T21:44:13.405Z,14.40
2023-05-04T21:46:41.861Z,14.30
2023-05-04T21:49:10.306Z,14.20
2023-05-04T21:51:40.266Z,14.10
2023-05-04T21:54:10.108Z,13.90
2023-05-04T21:56:38.254Z,13.90
2023-05-04T21:59:06.529Z,13.80
2023-05-04T22:01:34.916Z,13.70
2023-05-04T22:04:03.233Z,13.60
2023-05-04T22:06:31.663Z,13.60
2023-05-04T22:09:01.926Z,13.50
2023-05-04T22:11:30.393Z,13.50
2023-05-04T22:13:58.961Z,13.50
2023-05-04T22:16:27.364Z,13.50
2023-05-04T22:18:55.697Z,13.40
2023-05-04T22:21:23.901Z,13.40
2023-05-04T22:23:52.170Z,13.40
2023-05-04T22:26:22.254Z,13.30
2023-05-04T22:28:50.697Z,13.30
2023-05-04T22:31:19.154Z,13.20
2023-05-04T22:33:47.512Z,13.20
2023-05-04T22:36:15.925Z,13.10
2023-05-04T22:38:44.233Z,13.10
2023-05-04T22:41:14.679Z,13.10
2023-05-04T22:43:44.678Z,13.00
2023-05-04T22:46:16.585Z,13.00
2023-05-04T22:48:46.602Z,12.90
2023-05-04T22:51:15.245Z,12.90
2023-05-04T22:53:44.084Z,12.80
2023-05-04T22:56:12.300Z,12.80
2023-05-04T22:58:40.838Z,12.80
2023-05-04T23:01:11.899Z,12.80
2023-05-04T23:03:40.312Z,12.70
2023-05-04T23:06:09.126Z,12.70
2023-05-04T23:08:37.559Z,12.70
2023-05-04T23:11:06.129Z,12.60
2023-05-04T23:13:34.495Z,12.60
2023-05-04T23:16:02.850Z,12.60
2023-05-04T23:18:33.347Z,12.50
2023-05-04T23:21:01.625Z,12.50
2023-05-04T23:23:30.011Z,12.50
2023-05-04T23:25:58.567Z,12.50
2023-05-04T23:28:26.898Z,12.50
2023-05-04T23:30:55.769Z,12.50
2023-05-04T23:33:24.388Z,12.50
2023-05-04T23:35:57.098Z,12.50
2023-05-04T23:38:25.238Z,12.50
2023-05-04T23:40:53.932Z,12.50
2023-05-04T23:43:23.263Z,12.50
2023-05-04T23:45:51.543Z,12.60
2023-05-04T23:48:19.846Z,12.60
2023-05-04T23:50:54.577Z,12.60
2023-05-04T23:53:24.325Z,12.60
2023-05-04T23:55:59.705Z,12.70
2023-05-04T23:58:29.557Z,12.70
